Time;durP1;ratioP1;P1;durP2;ratioP2;P2;SDS_P1;SDS_P2;PMS_P1;PMS_P2;Temp;Humidity;BMP_temperature;BMP_pressure;BME280_temperature;BME280_humidity;BME280_pressure;Samples;Min_cycle;Max_cycle;Signal;HPM_P1;HPM_P2
2022/09/02 00:01:24;;;;;;;9.35;5.07;;;;;;;22.21;36.97;101559.41;5066738;28;20091;-61
2022/09/02 00:03:56;;;;;;;9.07;4.68;;;;;;;22.20;36.95;101560.50;5067024;28;20045;-61
2022/09/02 00:06:25;;;;;;;12.90;5.45;;;;;;;22.17;36.99;101550.94;5067014;28;20049;-61
2022/09/02 00:08:52;;;;;;;13.70;5.30;;;;;;;22.15;37.11;101553.13;5067025;28;20088;-61
2022/09/02 00:11:24;;;;;;;10.85;4.95;;;;;;;22.12;36.98;101550.13;5066213;28;20048;-61
2022/09/02 00:13:54;;;;;;;9.18;5.07;;;;;;;22.11;37.01;101546.59;5067126;28;20436;-61
2022/09/02 00:16:23;;;;;;;12.35;6.00;;;;;;;22.09;37.03;101546.03;5066536;28;20049;-61
2022/09/02 00:18:53;;;;;;;10.50;5.70;;;;;;;22.08;37.20;101544.41;5066865;28;20426;-61
2022/09/02 00:21:21;;;;;;;14.10;5.75;;;;;;;22.05;36.93;101542.25;5066245;28;20044;-61
2022/09/02 00:23:50;;;;;;;10.40;5.78;;;;;;;22.05;37.26;101547.72;5086668;28;20044;-61
2022/09/02 00:26:18;;;;;;;13.95;5.80;;;;;;;22.02;37.25;101543.63;5080906;28;20045;-61
2022/09/02 00:28:46;;;;;;;13.23;6.10;;;;;;;22.02;37.17;101537.31;5066620;28;20049;-61
2022/09/02 00:31:25;;;;;;;13.27;6.93;;;;;;;22.00;37.13;101537.56;5066286;28;20087;-61
2022/09/02 00:33:53;;;;;;;14.30;6.45;;;;;;;21.91;37.43;101527.50;5066375;28;20079;-61
2022/09/02 00:36:21;;;;;;;10.93;5.97;;;;;;;21.96;37.21;101547.44;5066386;28;20080;-61
2022/09/02 00:38:49;;;;;;;12.65;6.22;;;;;;;21.93;37.14;101534.31;5065565;28;20109;-61
2022/09/02 00:41:20;;;;;;;17.05;6.70;;;;;;;21.92;37.11;101535.41;5065846;28;20412;-62
2022/09/02 00:43:50;;;;;;;16.58;7.32;;;;;;;21.90;37.33;101537.63;5066419;28;20056;-61
2022/09/02 00:46:20;;;;;;;15.88;6.70;;;;;;;21.90;37.17;101540.34;5066039;28;20080;-62
2022/09/02 00:48:55;;;;;;;14.23;6.35;;;;;;;21.87;37.34;101537.38;5081130;28;20056;-62
2022/09/02 00:51:24;;;;;;;17.25;7.60;;;;;;;21.86;37.47;101542.03;5085706;28;20533;-62
2022/09/02 00:53:52;;;;;;;17.80;7.40;;;;;;;21.85;37.23;101534.91;5073680;28;20060;-62
2022/09/02 00:56:23;;;;;;;17.23;6.97;;;;;;;21.83;37.27;101537.09;5065765;28;20079;-61
2022/09/02 00:58:52;;;;;;;13.95;6.60;;;;;;;21.82;37.25;101538.19;5066229;28;20048;-61
2022/09/02 01:01:21;;;;;;;16.27;7.82;;;;;;;21.80;37.38;101534.94;5065667;28;20089;-62
2022/09/02 01:03:51;;;;;;;14.20;7.18;;;;;;;21.79;37.42;101527.81;5066023;28;20052;-61
2022/09/02 01:06:23;;;;;;;16.67;6.55;;;;;;;21.77;37.40;101530.84;5066132;28;20045;-62
2022/09/02 01:08:58;;;;;;;16.77;7.57;;;;;;;21.76;37.50;101525.66;5065920;28;20053;-62
2022/09/02 01:11:31;;;;;;;15.60;7.03;;;;;;;21.75;37.47;101524.81;5069527;28;20051;-61
2022/09/02 01:14:00;;;;;;;14.65;7.07;;;;;;;21.73;37.33;101523.47;5086016;28;20493;-61
2022/09/02 01:16:33;;;;;;;13.68;6.97;;;;;;;21.72;37.56;101517.19;5085675;28;20456;-62
2022/09/02 01:19:10;;;;;;;14.73;7.30;;;;;;;21.70;37.42;101519.38;5073527;28;20144;-61
2022/09/02 01:21:38;;;;;;;14.65;7.10;;;;;;;21.68;37.52;101527.03;5065651;28;20075;-61
2022/09/02 01:24:07;;;;;;;15.02;7.75;;;;;;;21.67;37.51;101525.41;5065918;28;20077;-62
2022/09/02 01:26:35;;;;;;;16.52;7.35;;;;;;;21.65;37.53;101524.03;5065182;28;20049;-61
2022/09/02 01:29:03;;;;;;;15.25;7.72;;;;;;;21.64;37.55;101517.75;5065775;28;20076;-62
2022/09/02 01:31:31;;;;;;;14.25;7.88;;;;;;;21.62;37.60;101517.22;5065302;28;20083;-62
2022/09/02 01:33:58;;;;;;;17.63;8.25;;;;;;;21.62;37.67;101527.34;5065844;28;20057;-62
2022/09/02 01:36:26;;;;;;;18.65;7.90;;;;;;;21.61;37.57;101523.78;5074746;28;20053;-62
2022/09/02 01:38:54;;;;;;;17.27;8.05;;;;;;;21.59;37.69;101511.47;5085800;28;20059;-61
2022/09/02 01:41:23;;;;;;;17.02;8.30;;;;;;;21.56;37.72;101515.59;5085177;28;20052;-61
2022/09/02 01:43:51;;;;;;;16.40;8.10;;;;;;;21.55;37.65;101513.97;5075532;28;20059;-61
2022/09/02 01:46:19;;;;;;;16.50;7.90;;;;;;;21.54;37.68;101511.50;5065152;28;20056;-61
2022/09/02 01:48:47;;;;;;;18.08;7.82;;;;;;;21.53;37.61;101510.69;5065654;28;20081;-61
2022/09/02 01:51:17;;;;;;;18.98;8.52;;;;;;;21.51;37.63;101503.84;5067818;28;20083;-61
2022/09/02 01:53:45;;;;;;;18.77;8.20;;;;;;;21.51;37.79;101506.59;5069566;28;20045;-61
2022/09/02 01:56:13;;;;;;;17.52;8.23;;;;;;;21.49;37.72;101506.06;5069059;28;20084;-61
2022/09/02 01:58:42;;;;;;;18.73;8.77;;;;;;;21.47;37.76;101506.31;5069348;28;20075;-61
2022/09/02 02:01:10;;;;;;;18.77;8.45;;;;;;;21.46;37.75;101512.06;5069003;28;20394;-61
2022/09/02 02:03:38;;;;;;;21.75;8.90;;;;;;;21.44;37.76;101504.97;5069349;28;20147;-62
2022/09/02 02:06:10;;;;;;;20.40;8.43;;;;;;;21.43;37.79;101510.72;5068907;28;20476;-61
2022/09/02 02:08:38;;;;;;;19.25;8.57;;;;;;;21.41;37.77;101508.25;5069375;28;20056;-62
2022/09/02 02:11:07;;;;;;;20.70;9.18;;;;;;;21.40;37.99;101509.34;5068533;28;20080;-61
2022/09/02 02:13:35;;;;;;;18.98;9.25;;;;;;;21.40;37.77;101508.53;5069234;28;20052;-61
2022/09/02 02:16:05;;;;;;;15.85;8.00;;;;;;;21.37;37.87;101504.44;5068957;28;20081;-61
2022/09/02 02:18:32;;;;;;;18.65;8.80;;;;;;;21.33;37.96;101503.34;5068924;28;20053;-61
2022/09/02 02:21:00;;;;;;;15.50;8.18;;;;;;;21.34;38.04;101513.19;5068771;28;20490;-61
2022/09/02 02:23:28;;;;;;;17.40;9.02;;;;;;;21.34;37.98;101506.91;5068876;28;20072;-62
2022/09/02 02:25:55;;;;;;;17.92;9.65;;;;;;;21.30;38.10;101506.66;5068463;28;20494;-61
2022/09/02 02:28:23;;;;;;;17.35;7.93;;;;;;;21.28;37.93;101497.91;5068941;28;20081;-61
2022/09/02 02:30:51;;;;;;;16.50;8.15;;;;;;;21.26;38.00;101502.84;5068342;28;20053;-61
2022/09/02 02:33:20;;;;;;;18.13;8.27;;;;;;;21.26;38.10;101502.84;5068884;28;20486;-61
2022/09/02 02:35:52;;;;;;;17.17;7.97;;;;;;;21.24;38.14;101496.81;5068698;28;20049;-61
2022/09/02 02:38:22;;;;;;;18.65;9.00;;;;;;;21.24;38.12;101506.94;5068736;28;20402;-61
2022/09/02 02:40:54;;;;;;;16.60;7.90;;;;;;;21.21;38.17;101491.88;5068204;28;20170;-62
2022/09/02 02:43:22;;;;;;;17.27;8.30;;;;;;;21.20;38.19;101489.41;5068632;28;20073;-62
2022/09/02 02:45:50;;;;;;;15.18;8.27;;;;;;;21.19;38.10;101493.25;5068511;28;20063;-61
2022/09/02 02:48:19;;;;;;;16.23;7.90;;;;;;;21.17;38.04;101498.19;5068436;28;20414;-61
2022/09/02 02:50:47;;;;;;;18.48;8.40;;;;;;;21.15;38.27;101486.69;5067950;28;20525;-61
2022/09/02 02:53:16;;;;;;;15.60;8.10;;;;;;;21.14;38.23;101494.09;5068435;28;20076;-61
2022/09/02 02:55:44;;;;;;;14.48;7.65;;;;;;;21.12;38.21;101490.81;5067903;28;20052;-61
2022/09/02 02:58:16;;;;;;;15.73;8.10;;;;;;;21.11;38.14;101486.44;5068219;28;20052;-61
2022/09/02 03:00:45;;;;;;;18.40;8.30;;;;;;;21.10;38.19;101484.78;5067799;28;20067;-61
2022/09/02 03:03:13;;;;;;;17.80;8.63;;;;;;;21.07;38.20;101485.34;5067277;28;20045;-62
2022/09/02 03:05:42;;;;;;;15.45;7.45;;;;;;;21.07;38.31;101488.09;5068216;28;20049;-61
2022/09/02 03:08:10;;;;;;;17.67;8.13;;;;;;;21.04;38.36;101483.97;5068260;28;20053;-61
2022/09/02 03:10:40;;;;;;;17.40;9.15;;;;;;;21.03;38.25;101485.06;5067670;28;20088;-61
2022/09/02 03:13:10;;;;;;;18.50;8.30;;;;;;;21.02;38.38;101475.25;5068093;28;20041;-61
2022/09/02 03:15:38;;;;;;;20.38;8.95;;;;;;;21.01;38.32;101479.06;5067649;28;20525;-61
2022/09/02 03:18:07;;;;;;;20.67;8.57;;;;;;;20.99;38.39;101477.72;5067533;28;20048;-60
2022/09/02 03:20:35;;;;;;;18.13;8.93;;;;;;;20.99;38.32;101485.91;5067767;28;20049;-61
2022/09/02 03:23:04;;;;;;;19.45;8.40;;;;;;;20.98;38.33;101484.25;5067885;28;20081;-61
2022/09/02 03:25:33;;;;;;;14.60;7.95;;;;;;;20.96;38.42;101483.72;5067829;28;20087;-61
2022/09/02 03:28:03;;;;;;;20.92;8.52;;;;;;;20.92;38.38;101478.00;5067750;28;20060;-61
2022/09/02 03:30:32;;;;;;;18.30;8.05;;;;;;;20.93;38.49;101476.91;5067420;28;20487;-61
2022/09/02 03:33:01;;;;;;;19.75;9.55;;;;;;;20.93;38.44;101470.63;5067784;28;20073;-61
2022/09/02 03:35:31;;;;;;;16.60;8.45;;;;;;;20.91;38.53;101473.63;5067775;28;20076;-61
2022/09/02 03:38:00;;;;;;;18.73;8.57;;;;;;;20.90;38.55;101476.63;5067639;28;20080;-61
2022/09/02 03:40:29;;;;;;;16.92;9.45;;;;;;;20.89;38.52;101470.34;5067201;28;20059;-61
2022/09/02 03:42:57;;;;;;;21.20;10.10;;;;;;;20.87;38.58;101467.06;5067261;28;20071;-61
2022/09/02 03:45:28;;;;;;;22.55;9.30;;;;;;;20.85;38.63;101462.97;5067440;28;20055;-60
2022/09/02 03:47:57;;;;;;;19.20;9.55;;;;;;;20.84;38.67;101467.63;5067170;28;20049;-61
2022/09/02 03:50:28;;;;;;;22.95;9.90;;;;;;;20.78;38.73;101455.91;5067261;28;20045;-61
2022/09/02 03:52:57;;;;;;;20.60;9.35;;;;;;;20.81;38.63;101457.25;5079479;28;20052;-61
2022/09/02 03:55:25;;;;;;;19.48;9.13;;;;;;;20.81;38.77;101457.25;5087361;28;20071;-60
2022/09/02 03:57:55;;;;;;;16.42;8.63;;;;;;;20.80;38.73;101458.38;5086857;28;20127;-61
2022/09/02 04:00:27;;;;;;;20.20;9.63;;;;;;;20.79;38.69;101462.19;5067928;28;20045;-60
2022/09/02 04:02:56;;;;;;;17.27;9.65;;;;;;;20.76;38.63;101455.38;5067096;28;20045;-60
2022/09/02 04:05:24;;;;;;;18.30;8.85;;;;;;;20.73;38.87;101450.44;5075666;28;20076;-60
2022/09/02 04:07:52;;;;;;;20.23;10.32;;;;;;;20.73;38.83;101455.91;5086962;28;20060;-60
2022/09/02 04:10:20;;;;;;;17.23;9.40;;;;;;;20.73;38.79;101452.38;5086877;28;20048;-61
2022/09/02 04:12:49;;;;;;;19.65;9.30;;;;;;;20.71;38.79;101458.09;5070081;28;20045;-60
2022/09/02 04:15:19;;;;;;;17.25;9.00;;;;;;;20.70;38.77;101447.44;5066713;28;20545;-60
2022/09/02 04:17:47;;;;;;;18.48;9.15;;;;;;;20.70;38.88;101452.91;5071927;28;20440;-60
2022/09/02 04:20:16;;;;;;;19.13;8.70;;;;;;;20.66;38.99;101449.91;5086604;28;20076;-61
2022/09/02 04:22:44;;;;;;;19.70;8.75;;;;;;;20.64;38.99;101440.34;5086727;28;20084;-61
2022/09/02 04:25:12;;;;;;;21.77;9.73;;;;;;;20.64;38.94;101449.38;5073278;28;20079;-60
2022/09/02 04:27:40;;;;;;;19.05;8.95;;;;;;;20.64;39.05;101451.28;5066424;28;20060;-61
2022/09/02 04:30:09;;;;;;;17.30;9.23;;;;;;;20.62;39.19;101448.00;5066755;28;20060;-60
2022/09/02 04:32:38;;;;;;;17.92;8.32;;;;;;;20.60;39.07;101436.53;5066103;28;20056;-60
2022/09/02 04:35:07;;;;;;;19.77;8.93;;;;;;;20.60;39.14;101433.81;5066669;28;20060;-62
2022/09/02 04:37:35;;;;;;;16.60;8.32;;;;;;;20.59;39.08;101445.81;5066495;28;20048;-61
2022/09/02 04:40:03;;;;;;;15.93;8.05;;;;;;;20.58;39.16;101438.72;5084429;28;20084;-60
2022/09/02 04:42:31;;;;;;;12.55;7.85;;;;;;;20.56;39.21;101439.00;5086059;28;20079;-61
2022/09/02 04:44:59;;;;;;;16.08;7.63;;;;;;;20.55;39.24;101439.28;5086363;28;20080;-61
2022/09/02 04:47:27;;;;;;;14.73;8.45;;;;;;;20.54;39.29;101440.34;5067020;28;20083;-61
2022/09/02 04:49:57;;;;;;;15.20;8.23;;;;;;;20.53;39.21;101441.44;5066186;28;20119;-61
2022/09/02 04:52:25;;;;;;;15.90;7.80;;;;;;;20.52;39.24;101437.91;5067277;28;20083;-61
2022/09/02 04:54:53;;;;;;;22.40;7.70;;;;;;;20.50;39.46;101444.72;5085456;28;20075;-61
2022/09/02 04:57:21;;;;;;;16.30;7.75;;;;;;;20.51;39.26;101444.47;5085044;28;20052;-61
2022/09/02 04:59:48;;;;;;;18.55;8.77;;;;;;;20.49;39.47;101448.56;5084974;28;20068;-61
2022/09/02 05:02:17;;;;;;;17.40;7.90;;;;;;;20.48;39.47;101445.00;5072481;28;20076;-61
2022/09/02 05:04:45;;;;;;;14.55;7.35;;;;;;;20.48;39.41;101441.44;5065641;28;20052;-61
2022/09/02 05:07:14;;;;;;;17.42;7.63;;;;;;;20.43;39.50;101439.53;5065446;28;20044;-61
2022/09/02 05:09:43;;;;;;;14.50;7.80;;;;;;;20.44;39.38;101444.72;5065740;28;20056;-61
2022/09/02 05:12:10;;;;;;;12.13;7.07;;;;;;;20.44;39.58;101443.91;5065354;28;20045;-61
2022/09/02 05:14:39;;;;;;;18.35;7.53;;;;;;;20.42;39.41;101449.66;5074520;28;20060;-61
2022/09/02 05:17:06;;;;;;;18.67;7.53;;;;;;;20.43;39.73;101450.47;5085565;28;20080;-61
2022/09/02 05:19:34;;;;;;;14.57;7.05;;;;;;;20.42;39.59;101441.44;5085979;28;20127;-61
2022/09/02 05:22:03;;;;;;;12.48;6.32;;;;;;;20.41;39.59;101445.28;5085630;28;20044;-61
2022/09/02 05:24:33;;;;;;;10.55;6.63;;;;;;;20.41;39.59;101449.91;5068830;28;20592;-61
2022/09/02 05:27:00;;;;;;;15.38;6.43;;;;;;;20.40;39.64;101442.81;5065095;28;20088;-61
2022/09/02 05:29:28;;;;;;;14.48;6.35;;;;;;;20.40;39.67;101449.09;5065703;28;20076;-61
2022/09/02 05:31:56;;;;;;;12.73;6.20;;;;;;;20.39;39.68;101446.63;5065403;28;20063;-61
2022/09/02 05:34:24;;;;;;;11.63;6.00;;;;;;;20.39;39.75;101446.63;5065615;28;20060;-62
2022/09/02 05:36:52;;;;;;;13.10;5.03;;;;;;;20.37;39.89;101443.34;5065405;28;20053;-61
2022/09/02 05:39:20;;;;;;;10.32;5.57;;;;;;;20.38;39.75;101447.69;5065519;28;20384;-61
2022/09/02 05:41:49;;;;;;;12.13;5.30;;;;;;;20.35;39.91;101448.25;5065005;28;20409;-61
2022/09/02 05:44:17;;;;;;;12.10;5.65;;;;;;;20.35;39.82;101442.78;5065772;28;20080;-61
2022/09/02 05:46:45;;;;;;;15.07;5.53;;;;;;;20.36;39.83;101445.25;5065230;28;20044;-61
2022/09/02 05:49:17;;;;;;;9.18;5.88;;;;;;;20.35;40.00;101448.25;5065317;28;20049;-61
2022/09/02 05:51:46;;;;;;;12.02;5.28;;;;;;;20.34;39.95;101449.34;5065193;28;20049;-61
2022/09/02 05:54:17;;;;;;;9.95;4.88;;;;;;;20.33;39.85;101451.25;5065486;28;20049;-61
2022/09/02 05:56:47;;;;;;;9.35;4.57;;;;;;;20.31;39.89;101450.69;5065047;28;20077;-61
2022/09/02 05:59:17;;;;;;;9.38;4.28;;;;;;;20.31;40.14;101450.69;5065483;28;20049;-61
2022/09/02 06:01:45;;;;;;;9.20;4.32;;;;;;;20.29;40.16;101443.88;5065228;28;20052;-61
2022/09/02 06:04:14;;;;;;;8.15;3.95;;;;;;;20.29;40.21;101443.88;5065286;28;20548;-61
2022/09/02 06:06:42;;;;;;;10.82;5.00;;;;;;;20.30;40.20;101445.50;5065047;28;20047;-61
2022/09/02 06:09:13;;;;;;;7.97;4.50;;;;;;;20.29;40.16;101441.16;5065118;28;20091;-61
2022/09/02 06:11:43;;;;;;;6.95;3.45;;;;;;;20.29;40.17;101450.16;5064908;28;20060;-62
2022/09/02 06:14:12;;;;;;;5.60;3.60;;;;;;;20.28;40.10;101451.25;5065074;28;20071;-61
2022/09/02 06:16:42;;;;;;;12.65;4.25;;;;;;;20.26;40.10;101447.97;5064837;28;20056;-61
2022/09/02 06:19:10;;;;;;;9.82;3.90;;;;;;;20.27;40.28;101446.88;5065507;28;20048;-61
2022/09/02 06:21:43;;;;;;;9.32;3.47;;;;;;;20.23;40.36;101440.31;5079881;28;20051;-61
2022/09/02 06:24:12;;;;;;;7.75;3.88;;;;;;;20.26;40.18;101442.50;5085306;28;20150;-61
2022/09/02 06:26:41;;;;;;;8.07;3.92;;;;;;;20.24;40.43;101439.22;5084944;28;20084;-61
2022/09/02 06:29:10;;;;;;;5.50;3.55;;;;;;;20.22;40.40;101435.94;5085303;28;20087;-61
2022/09/02 06:31:42;;;;;;;8.73;3.95;;;;;;;20.25;40.29;101445.50;5066770;28;20040;-61
2022/09/02 06:34:12;;;;;;;10.55;3.70;;;;;;;20.25;40.47;101438.13;5065010;28;20474;-61
2022/09/02 06:36:41;;;;;;;7.75;3.47;;;;;;;20.16;40.32;101428.84;5065064;28;20399;-61
2022/09/02 06:39:11;;;;;;;7.32;3.10;;;;;;;20.25;40.55;101442.78;5068729;28;20081;-62
2022/09/02 06:41:41;;;;;;;6.35;3.53;;;;;;;20.15;40.45;101428.03;5068310;28;20053;-61
2022/09/02 06:44:10;;;;;;;5.30;3.05;;;;;;;20.24;40.67;101441.97;5068804;28;20064;-61
2022/09/02 06:46:46;;;;;;;6.35;2.80;;;;;;;20.24;40.64;101444.69;5068312;28;20044;-61
2022/09/02 06:49:15;;;;;;;6.43;3.67;;;;;;;20.24;40.67;101441.13;5068587;28;20106;-61
2022/09/02 06:51:45;;;;;;;6.68;3.15;;;;;;;20.25;40.64;101440.06;5072157;28;20067;-61
2022/09/02 06:54:15;;;;;;;9.23;3.15;;;;;;;20.23;40.70;101434.03;5088561;28;20056;-61
2022/09/02 06:56:44;;;;;;;9.40;3.45;;;;;;;20.23;40.77;101443.06;5088195;28;20040;-61
2022/09/02 06:59:16;;;;;;;7.95;2.83;;;;;;;20.23;40.67;101437.59;5073982;28;20084;-61
2022/09/02 07:01:46;;;;;;;8.93;3.08;;;;;;;20.23;40.83;101429.41;5067925;28;20091;-61
2022/09/02 07:06:59;;;;;;;5.05;2.58;;;;;;;20.22;40.83;101430.50;5080034;28;20052;-61
2022/09/02 07:09:29;;;;;;;8.50;2.90;;;;;;;20.23;40.90;101434.88;5083665;28;20088;-62
2022/09/02 07:11:59;;;;;;;4.00;2.35;;;;;;;20.25;40.93;101435.41;5067510;28;20490;-61
2022/09/02 07:14:35;;;;;;;5.50;2.95;;;;;;;20.25;40.96;101431.88;5068038;28;20045;-61
2022/09/02 07:17:05;;;;;;;8.63;2.67;;;;;;;20.25;41.01;101424.50;5067349;28;20060;-62
2022/09/02 07:19:33;;;;;;;5.70;2.53;;;;;;;20.26;40.88;101422.59;5067943;28;20049;-60
2022/09/02 07:22:02;;;;;;;6.15;2.30;;;;;;;20.23;41.18;101417.66;5073216;28;20074;-61
2022/09/02 07:24:30;;;;;;;8.52;3.00;;;;;;;20.25;40.89;101423.66;5088005;28;20079;-61
2022/09/02 07:26:58;;;;;;;5.38;2.08;;;;;;;20.25;41.11;101423.66;5087398;28;20048;-60
2022/09/02 07:29:26;;;;;;;4.47;2.10;;;;;;;20.27;41.14;101424.22;5071936;28;20122;-61
2022/09/02 07:31:53;;;;;;;7.30;3.03;;;;;;;20.26;41.11;101414.38;5067219;28;20048;-60
2022/09/02 07:34:22;;;;;;;4.72;2.40;;;;;;;20.27;41.28;101421.50;5067548;28;20045;-61
2022/09/02 07:36:51;;;;;;;9.90;2.65;;;;;;;20.27;41.02;101425.03;5067574;28;20503;-61
2022/09/02 07:39:19;;;;;;;4.65;2.08;;;;;;;20.25;41.39;101413.56;5067546;28;20128;-62
2022/09/02 07:41:49;;;;;;;6.90;2.40;;;;;;;20.27;41.39;101419.56;5067110;28;20096;-62
2022/09/02 07:44:18;;;;;;;7.63;2.17;;;;;;;20.28;41.28;101423.13;5067416;28;20108;-61
2022/09/02 07:46:46;;;;;;;4.38;1.95;;;;;;;20.28;41.37;101421.22;5067128;28;20052;-61
2022/09/02 07:49:15;;;;;;;6.50;2.35;;;;;;;20.29;41.68;101424.75;5066483;28;20053;-61
2022/09/02 07:51:51;;;;;;;6.87;2.57;;;;;;;20.28;41.34;101415.75;5067085;28;20106;-62
2022/09/02 07:54:22;;;;;;;9.88;2.35;;;;;;;20.28;41.31;101423.94;5067273;28;20068;-62
2022/09/02 07:56:50;;;;;;;4.00;2.20;;;;;;;20.28;41.59;101423.13;5066829;28;20044;-61
2022/09/02 07:59:20;;;;;;;5.15;2.35;;;;;;;20.29;41.52;101416.56;5066841;28;20072;-61
2022/09/02 08:01:48;;;;;;;6.63;2.00;;;;;;;20.29;41.48;101419.31;5066752;28;20053;-61
2022/09/02 08:04:17;;;;;;;4.95;2.00;;;;;;;20.29;41.46;101419.31;5067097;28;20068;-61
2022/09/02 08:06:45;;;;;;;6.20;2.47;;;;;;;20.29;41.67;101420.13;5066626;28;20079;-62
2022/09/02 08:09:14;;;;;;;4.35;1.98;;;;;;;20.29;41.52;101411.94;5067371;28;20075;-61
2022/09/02 08:11:45;;;;;;;9.25;2.70;;;;;;;20.29;41.62;101409.19;5066331;28;20052;-62
2022/09/02 08:14:17;;;;;;;6.25;1.95;;;;;;;20.30;41.65;101410.03;5067051;28;20079;-61
2022/09/02 08:16:47;;;;;;;3.92;1.98;;;;;;;20.30;41.87;101415.47;5066709;28;20057;-60
2022/09/02 08:19:15;;;;;;;4.57;1.70;;;;;;;20.31;41.75;101415.22;5066469;28;20468;-61
2022/09/02 08:21:42;;;;;;;4.25;2.08;;;;;;;20.31;41.69;101409.75;5066463;28;20057;-61
2022/09/02 08:24:10;;;;;;;3.65;2.17;;;;;;;20.31;41.84;101414.41;5066849;28;20076;-61
2022/09/02 08:26:39;;;;;;;9.50;2.05;;;;;;;20.31;41.86;101409.75;5065838;28;20083;-61
2022/09/02 08:29:09;;;;;;;5.70;2.50;;;;;;;20.33;41.85;101406.75;5066798;28;20083;-61
2022/09/02 08:31:37;;;;;;;3.38;2.05;;;;;;;20.33;41.80;101406.75;5066513;28;20045;-61
2022/09/02 08:34:05;;;;;;;5.38;2.10;;;;;;;20.34;41.72;101408.38;5066028;28;20053;-61
2022/09/02 08:36:33;;;;;;;5.68;2.05;;;;;;;20.34;41.90;101398.28;5066381;28;20048;-61
2022/09/02 08:39:03;;;;;;;3.25;2.00;;;;;;;20.35;41.99;101404.56;5065957;28;20049;-61
2022/09/02 08:41:38;;;;;;;3.72;1.85;;;;;;;20.36;41.84;101400.75;5065896;28;20052;-61
2022/09/02 08:44:13;;;;;;;4.20;2.53;;;;;;;20.37;42.01;101410.56;5066449;28;20270;-61
2022/09/02 08:46:41;;;;;;;3.35;2.05;;;;;;;20.37;41.96;101400.47;5065720;28;20525;-61
2022/09/02 08:49:15;;;;;;;3.60;2.20;;;;;;;20.39;41.93;101400.22;5066219;28;20406;-61
2022/09/02 08:51:47;;;;;;;8.05;2.00;;;;;;;20.41;41.86;101398.03;5065997;28;20068;-61
2022/09/02 08:54:26;;;;;;;3.75;2.17;;;;;;;20.41;41.96;101398.03;5066205;28;20091;-61
2022/09/02 08:56:55;;;;;;;4.38;1.77;;;;;;;20.41;41.86;101393.41;5065583;28;20045;-61
2022/09/02 08:59:26;;;;;;;5.60;2.20;;;;;;;20.44;42.20;101400.22;5067068;28;20081;-61
2022/09/02 09:01:59;;;;;;;4.47;1.88;;;;;;;20.44;41.98;101400.22;5077633;28;20139;-61
2022/09/02 09:04:53;;;;;;;4.95;2.33;;;;;;;20.46;42.24;101398.03;5065862;28;20061;-61
2022/09/02 09:07:29;;;;;;;5.50;2.00;;;;;;;20.48;42.08;101403.22;5065827;28;20056;-61
2022/09/02 09:10:08;;;;;;;4.25;1.95;;;;;;;20.48;42.18;101400.50;5084346;28;20058;-61
2022/09/02 09:12:51;;;;;;;3.83;1.70;;;;;;;20.50;42.18;101398.31;5077154;28;20064;-61
2022/09/02 09:15:30;;;;;;;4.05;2.00;;;;;;;20.50;42.35;101392.84;5065718;28;20049;-60
2022/09/02 09:18:00;;;;;;;3.33;1.73;;;;;;;20.51;42.22;101400.75;5065574;28;20109;-60
2022/09/02 09:20:31;;;;;;;3.55;1.70;;;;;;;20.53;42.53;101403.22;5065483;28;20068;-60
2022/09/02 09:23:01;;;;;;;6.68;2.00;;;;;;;20.54;42.47;101399.41;5065571;28;20494;-60
2022/09/02 09:25:29;;;;;;;6.13;1.83;;;;;;;20.55;42.67;101395.56;5065633;28;20383;-60
2022/09/02 09:27:57;;;;;;;6.00;1.80;;;;;;;20.55;42.44;101396.41;5065192;28;20080;-61
2022/09/02 09:30:27;;;;;;;2.22;1.50;;;;;;;20.57;42.63;101390.66;5065598;28;20052;-60
2022/09/02 09:32:58;;;;;;;4.35;1.60;;;;;;;20.58;42.52;101386.81;5065569;28;20073;-60
2022/09/02 09:35:28;;;;;;;3.50;1.60;;;;;;;20.60;42.61;101392.84;5065554;28;20118;-60
2022/09/02 09:37:56;;;;;;;3.58;1.70;;;;;;;20.60;42.29;101390.91;5074820;28;20079;-60
2022/09/02 09:40:30;;;;;;;4.38;2.08;;;;;;;20.60;42.58;101380.00;5085607;28;20059;-60
2022/09/02 09:43:12;;;;;;;4.13;1.92;;;;;;;20.64;42.49;101380.25;5084281;28;20045;-60
2022/09/02 09:45:44;;;;;;;3.85;1.92;;;;;;;20.66;43.07;101383.53;5065555;28;20049;-60
2022/09/02 09:48:21;;;;;;;2.78;1.77;;;;;;;20.68;42.92;101379.44;5065369;28;20053;-60
2022/09/02 09:51:10;;;;;;;2.53;1.77;;;;;;;20.70;43.00;101379.97;5065139;28;20045;-60
2022/09/02 09:53:38;;;;;;;5.88;1.80;;;;;;;20.73;42.71;101375.88;5065546;28;20045;-60
2022/09/02 09:56:07;;;;;;;5.50;2.00;;;;;;;20.75;42.64;101376.41;5065010;28;20041;-60
2022/09/02 09:58:43;;;;;;;4.70;1.80;;;;;;;20.76;42.81;101373.41;5065362;28;20044;-60
2022/09/02 10:01:14;;;;;;;5.05;1.85;;;;;;;20.79;42.85;101372.84;5065253;28;20057;-61
2022/09/02 10:03:48;;;;;;;4.07;1.88;;;;;;;20.79;42.85;101359.19;5065486;28;20083;-60
2022/09/02 10:06:22;;;;;;;4.13;1.58;;;;;;;20.82;43.11;101349.59;5065157;28;20509;-60
2022/09/02 10:08:55;;;;;;;3.38;1.90;;;;;;;20.86;42.89;101358.06;5065170;28;20045;-61
2022/09/02 10:11:25;;;;;;;3.85;1.65;;;;;;;20.87;42.89;101355.03;5065931;28;20076;-61
2022/09/02 10:13:59;;;;;;;3.97;1.77;;;;;;;20.90;43.23;101350.94;5068922;28;20052;-61
2022/09/02 10:16:53;;;;;;;3.92;1.65;;;;;;;20.92;43.01;101346.00;5068692;28;20041;-61
2022/09/02 10:19:27;;;;;;;5.07;1.90;;;;;;;20.94;43.06;101347.38;5069203;28;20048;-61
2022/09/02 10:22:34;;;;;;;4.00;1.67;;;;;;;20.97;43.06;101348.72;5068679;28;20088;-61
2022/09/02 10:25:29;;;;;;;3.22;1.33;;;;;;;21.01;43.02;101339.69;5069069;28;20140;-61
2022/09/02 10:28:06;;;;;;;4.80;1.73;;;;;;;21.01;43.18;101339.69;5068435;28;20049;-61
2022/09/02 10:30:42;;;;;;;4.80;2.10;;;;;;;21.07;43.23;101341.31;5068688;28;20083;-61
2022/09/02 10:33:19;;;;;;;;;;;;;;;21.11;44.08;101338.84;5069114;28;20077;-61
2022/09/02 10:35:51;;;;;;;5.45;1.45;;;;;;;21.14;43.67;101335.53;5068683;28;19927;-61
2022/09/02 10:38:35;;;;;;;3.03;1.63;;;;;;;21.20;43.43;101334.41;5068850;28;20053;-61
2022/09/02 10:41:19;;;;;;;3.28;1.50;;;;;;;21.24;43.44;101337.44;5068175;28;20072;-61
2022/09/02 10:43:59;;;;;;;5.93;1.50;;;;;;;21.28;42.85;101327.56;5068711;28;20080;-61
2022/09/02 10:46:36;;;;;;;4.28;1.38;;;;;;;21.32;42.63;101326.72;5068195;28;20075;-62
2022/09/02 10:49:18;;;;;;;5.68;1.90;;;;;;;21.37;42.36;101331.34;5068640;28;20049;-61
2022/09/02 10:51:55;;;;;;;4.70;1.88;;;;;;;21.41;42.56;101325.03;5068315;28;20083;-61
2022/09/02 10:54:36;;;;;;;4.63;2.38;;;;;;;21.47;42.90;101327.75;5070447;28;20080;-61
2022/09/02 10:57:10;;;;;;;5.63;1.65;;;;;;;21.51;42.29;101320.59;5087974;28;20048;-62
2022/09/02 10:59:43;;;;;;;3.40;1.80;;;;;;;21.55;41.91;101317.03;5088582;28;20059;-62
2022/09/02 11:02:17;;;;;;;4.30;1.98;;;;;;;21.60;42.63;101307.97;5079939;28;20064;-62
2022/09/02 11:04:51;;;;;;;3.63;1.60;;;;;;;21.64;42.21;101304.38;5068366;28;20087;-62
2022/09/02 11:07:27;;;;;;;2.75;1.60;;;;;;;21.70;41.99;101296.94;5068274;28;20045;-61
2022/09/02 11:09:59;;;;;;;2.50;1.58;;;;;;;21.74;41.88;101284.31;5068084;28;20049;-62
2022/09/02 11:12:32;;;;;;;3.78;1.63;;;;;;;21.78;41.94;101288.13;5067815;28;20048;-62
2022/09/02 11:15:09;;;;;;;3.58;1.70;;;;;;;21.84;42.03;101286.97;5068273;28;20084;-62
2022/09/02 11:17:42;;;;;;;4.60;1.63;;;;;;;21.89;42.00;101286.13;5067167;28;20514;-62
2022/09/02 11:20:17;;;;;;;3.90;1.85;;;;;;;21.93;41.97;101279.78;5067951;28;20520;-62
2022/09/02 11:22:53;;;;;;;2.35;1.45;;;;;;;22.00;42.00;101271.25;5066866;28;20052;-62
2022/09/02 11:25:24;;;;;;;1.92;1.67;;;;;;;22.05;42.15;101276.72;5067691;28;20148;-62
2022/09/02 11:27:59;;;;;;;3.45;1.60;;;;;;;22.11;42.56;101278.28;5067360;28;20107;-62
2022/09/02 11:30:35;;;;;;;2.53;1.60;;;;;;;22.17;41.89;101273.59;5068065;28;20045;-62
2022/09/02 11:33:15;;;;;;;5.50;1.83;;;;;;;22.24;42.49;101263.09;5067179;28;20059;-62
2022/09/02 11:35:45;;;;;;;2.97;1.48;;;;;;;22.29;42.74;101266.59;5067590;28;20544;-62
2022/09/02 11:38:30;;;;;;;3.38;1.88;;;;;;;22.36;42.27;101266.25;5067196;28;20049;-62
2022/09/02 11:41:18;;;;;;;3.10;1.77;;;;;;;22.40;41.77;101261.84;5067553;28;20490;-62